createdAt,value
2017-10-13T00:00:56.476Z,4.70
2017-10-13T00:03:23.996Z,4.77
2017-10-13T00:05:51.491Z,6.70
2017-10-13T00:08:19.030Z,12.33
2017-10-13T00:10:46.950Z,10.27
2017-10-13T00:13:15.239Z,7.40
2017-10-13T00:15:42.746Z,8.43
2017-10-13T00:18:11.771Z,7.20
2017-10-13T00:20:39.270Z,6.70
2017-10-13T00:23:06.792Z,5.40
2017-10-13T00:25:34.295Z,4.90
2017-10-13T00:28:02.619Z,4.83
2017-10-13T00:30:31.470Z,4.40
2017-10-13T00:32:59.734Z,3.70
2017-10-13T00:35:27.634Z,4.40
2017-10-13T00:37:56.483Z,3.50
2017-10-13T00:40:25.519Z,4.40
2017-10-13T00:42:53.410Z,3.10
2017-10-13T00:45:21.692Z,3.07
2017-10-13T00:47:49.599Z,4.57
2017-10-13T00:50:17.110Z,3.77
2017-10-13T00:52:44.615Z,3.90
2017-10-13T00:55:12.132Z,3.90
2017-10-13T00:57:39.633Z,3.80
2017-10-13T01:00:07.160Z,3.80
2017-10-13T01:02:35.432Z,3.53
2017-10-13T01:05:03.731Z,4.23
2017-10-13T01:07:31.236Z,3.10
2017-10-13T01:09:59.507Z,3.70
2017-10-13T01:12:27.788Z,3.97
2017-10-13T01:14:56.633Z,3.90
2017-10-13T01:17:24.161Z,3.90
2017-10-13T01:19:51.663Z,3.90
2017-10-13T01:22:19.958Z,4.43
2017-10-13T01:24:47.859Z,4.90
2017-10-13T01:27:15.399Z,4.60
2017-10-13T01:29:44.448Z,4.40
2017-10-13T01:32:12.720Z,4.93
2017-10-13T01:34:40.223Z,6.00
2017-10-13T01:37:09.074Z,5.23
2017-10-13T01:39:36.600Z,5.77
2017-10-13T01:42:04.119Z,5.93
2017-10-13T01:44:31.645Z,5.87
2017-10-13T01:46:59.547Z,4.90
2017-10-13T01:49:27.059Z,6.30
2017-10-13T01:51:54.578Z,6.77
2017-10-13T01:54:22.545Z,8.63
2017-10-13T01:56:50.056Z,7.37
2017-10-13T01:59:18.334Z,5.67
2017-10-13T02:01:46.613Z,6.77
2017-10-13T02:04:14.115Z,6.97
2017-10-13T02:06:42.383Z,5.40
2017-10-13T02:09:09.879Z,4.97
2017-10-13T02:11:37.407Z,5.07
2017-10-13T02:14:04.919Z,5.67
2017-10-13T02:16:32.447Z,6.13
2017-10-13T02:19:01.457Z,5.93
2017-10-13T02:21:28.979Z,5.77
2017-10-13T02:23:56.500Z,6.30
2017-10-13T02:26:24.800Z,5.00
2017-10-13T02:28:52.301Z,5.70
2017-10-13T02:31:21.179Z,6.53
2017-10-13T02:33:50.031Z,6.70
2017-10-13T02:36:17.573Z,5.50
2017-10-13T02:38:45.089Z,4.57
2017-10-13T02:41:12.986Z,4.83
2017-10-13T02:43:41.262Z,4.13
2017-10-13T02:46:08.768Z,4.83
2017-10-13T02:48:37.052Z,4.57
2017-10-13T02:51:04.555Z,5.10
2017-10-13T02:53:32.081Z,5.07
2017-10-13T02:55:59.583Z,3.97
2017-10-13T02:58:27.512Z,4.30
2017-10-13T03:00:55.011Z,4.70
2017-10-13T03:03:22.558Z,4.67
2017-10-13T03:05:51.429Z,4.60
2017-10-13T03:08:18.957Z,4.97
2017-10-13T03:10:46.453Z,4.83
2017-10-13T03:13:13.971Z,5.20
2017-10-13T03:15:42.992Z,5.50
2017-10-13T03:18:11.263Z,5.60
2017-10-13T03:20:39.167Z,4.83
2017-10-13T03:23:07.437Z,4.93
2017-10-13T03:25:35.351Z,4.60
2017-10-13T03:28:03.240Z,4.80
2017-10-13T03:30:32.131Z,4.00
2017-10-13T03:32:59.642Z,4.10
2017-10-13T03:35:27.935Z,3.60
2017-10-13T03:37:56.207Z,3.97
2017-10-13T03:40:24.870Z,4.37
2017-10-13T03:42:52.367Z,5.17
2017-10-13T03:45:19.888Z,4.93
2017-10-13T03:47:47.389Z,3.73
2017-10-13T03:50:16.287Z,3.43
2017-10-13T03:52:43.787Z,3.60
2017-10-13T03:55:11.343Z,3.10
2017-10-13T03:57:38.851Z,4.00
2017-10-13T04:00:06.361Z,4.03
2017-10-13T04:02:34.634Z,3.90
2017-10-13T04:05:02.535Z,3.60
2017-10-13T04:07:30.047Z,3.60
2017-10-13T04:09:57.558Z,4.33
2017-10-13T04:12:25.078Z,3.53
2017-10-13T04:14:52.580Z,3.97
2017-10-13T04:17:20.104Z,4.40
2017-10-13T04:19:47.604Z,3.80
2017-10-13T04:22:15.131Z,4.40
2017-10-13T04:24:43.023Z,3.80
2017-10-13T04:27:10.584Z,4.40
2017-10-13T04:29:38.082Z,3.63
2017-10-13T04:32:05.594Z,4.07
2017-10-13T04:34:33.880Z,3.97
2017-10-13T04:37:01.374Z,4.23
2017-10-13T04:39:29.668Z,3.83
2017-10-13T04:41:57.944Z,4.77
2017-10-13T04:44:25.471Z,4.33
2017-10-13T04:46:52.967Z,3.50
2017-10-13T04:49:20.486Z,3.53
2017-10-13T04:51:48.766Z,4.40
2017-10-13T04:54:16.320Z,3.60
2017-10-13T04:56:43.824Z,3.50
2017-10-13T04:59:16.596Z,3.70
2017-10-13T05:01:44.104Z,4.37
2017-10-13T05:04:11.612Z,3.43
2017-10-13T05:06:39.135Z,3.40
2017-10-13T05:09:07.758Z,3.30
2017-10-13T05:11:35.667Z,4.10
2017-10-13T05:14:04.515Z,3.97
2017-10-13T05:16:32.035Z,3.53
2017-10-13T05:18:59.531Z,3.30
2017-10-13T05:21:27.445Z,4.50
2017-10-13T05:23:55.710Z,4.20
2017-10-13T05:26:23.243Z,4.17
2017-10-13T05:28:51.515Z,3.67
2017-10-13T05:31:19.014Z,4.50
2017-10-13T05:33:46.507Z,3.50
2017-10-13T05:36:14.024Z,4.07
2017-10-13T05:38:41.547Z,3.93
2017-10-13T05:41:09.823Z,4.07
2017-10-13T05:43:37.354Z,3.67
2017-10-13T05:46:04.860Z,4.17
2017-10-13T05:48:32.385Z,3.43
2017-10-13T05:50:59.896Z,3.80
2017-10-13T05:53:28.927Z,3.87
2017-10-13T05:55:57.567Z,3.87
2017-10-13T05:58:25.071Z,3.00
2017-10-13T06:00:52.592Z,5.10
2017-10-13T06:03:20.087Z,4.17
2017-10-13T06:05:47.603Z,4.10
2017-10-13T06:08:16.451Z,3.90
2017-10-13T06:10:43.976Z,3.90
2017-10-13T06:13:11.479Z,4.50
2017-10-13T06:15:38.999Z,4.20
2017-10-13T06:18:06.503Z,4.23
2017-10-13T06:20:34.052Z,4.20
2017-10-13T06:23:01.565Z,4.57
2017-10-13T06:25:29.876Z,4.10
2017-10-13T06:27:57.371Z,4.10
2017-10-13T06:30:26.226Z,4.10
2017-10-13T06:32:54.199Z,4.67
2017-10-13T06:35:21.704Z,4.13
2017-10-13T06:37:49.225Z,3.73
2017-10-13T06:40:16.734Z,3.53
2017-10-13T06:42:44.633Z,4.47
2017-10-13T06:45:12.133Z,3.40
2017-10-13T06:47:40.032Z,4.20
2017-10-13T06:50:07.554Z,4.00
2017-10-13T06:52:36.205Z,4.23
2017-10-13T06:55:03.706Z,3.50
2017-10-13T06:57:31.606Z,4.63
2017-10-13T06:59:59.128Z,4.67
2017-10-13T07:02:26.633Z,3.87
2017-10-13T07:04:54.158Z,4.33
2017-10-13T07:07:21.662Z,4.03
2017-10-13T07:09:49.187Z,4.70
2017-10-13T07:12:16.692Z,8.47
2017-10-13T07:14:45.720Z,11.97
2017-10-13T07:17:13.612Z,8.10
2017-10-13T07:19:41.885Z,7.37
2017-10-13T07:22:09.784Z,5.20
2017-10-13T07:24:38.415Z,5.17
2017-10-13T07:27:05.927Z,5.53
2017-10-13T07:29:34.579Z,5.17
2017-10-13T07:32:02.079Z,4.90
2017-10-13T07:34:30.732Z,4.20
2017-10-13T07:36:58.998Z,4.30
2017-10-13T07:39:27.281Z,4.63
2017-10-13T07:41:55.580Z,3.67
2017-10-13T07:44:23.083Z,4.27
2017-10-13T07:46:50.580Z,4.53
2017-10-13T07:49:18.070Z,4.27
2017-10-13T07:51:45.578Z,3.80
2017-10-13T07:54:13.864Z,4.10
2017-10-13T07:56:42.134Z,3.97
2017-10-13T07:59:10.396Z,4.20
2017-10-13T08:01:39.036Z,3.97
2017-10-13T08:04:06.550Z,4.40
2017-10-13T08:06:34.058Z,3.83
2017-10-13T08:09:01.550Z,3.87
2017-10-13T08:11:29.049Z,4.30
2017-10-13T08:13:57.340Z,4.17
2017-10-13T08:16:25.619Z,3.57
2017-10-13T08:18:53.135Z,3.73
2017-10-13T08:21:20.632Z,3.40
2017-10-13T08:23:48.135Z,2.97
2017-10-13T08:26:15.647Z,2.37
2017-10-13T08:28:43.551Z,2.40
2017-10-13T08:31:11.083Z,2.40
2017-10-13T08:33:39.723Z,2.90
2017-10-13T08:36:07.627Z,3.10
2017-10-13T08:38:35.539Z,2.50
2017-10-13T08:41:03.055Z,2.83
2017-10-13T08:43:30.945Z,2.73
2017-10-13T08:45:58.446Z,2.80
2017-10-13T08:48:26.354Z,3.10
2017-10-13T08:50:53.855Z,2.57
2017-10-13T08:53:22.492Z,2.93
2017-10-13T08:55:49.996Z,2.23
2017-10-13T08:58:17.614Z,1.70
2017-10-13T09:00:45.111Z,1.53
2017-10-13T09:03:13.746Z,1.80
2017-10-13T09:05:41.248Z,1.33
2017-10-13T09:08:08.735Z,1.30
2017-10-13T09:10:37.367Z,1.60
2017-10-13T09:13:05.636Z,1.57
2017-10-13T09:15:33.151Z,2.03
2017-10-13T09:18:01.411Z,2.37
2017-10-13T09:20:29.315Z,1.47
2017-10-13T09:23:11.703Z,1.83
2017-10-13T09:25:39.226Z,1.80
2017-10-13T09:28:06.721Z,1.83
2017-10-13T09:30:34.663Z,1.80
2017-10-13T09:33:02.927Z,1.67
2017-10-13T09:35:31.187Z,1.63
2017-10-13T09:37:58.700Z,1.40
2017-10-13T09:40:27.729Z,1.30
2017-10-13T09:42:55.252Z,1.63
2017-10-13T09:45:22.775Z,1.60
2017-10-13T09:47:50.271Z,1.43
2017-10-13T09:50:17.772Z,1.50
2017-10-13T09:52:46.046Z,1.67
2017-10-13T09:55:14.311Z,1.93
2017-10-13T09:57:42.248Z,1.63
2017-10-13T10:00:11.271Z,1.20
2017-10-13T10:02:39.902Z,1.67
2017-10-13T10:05:08.170Z,1.20
2017-10-13T10:07:37.182Z,1.70
2017-10-13T10:10:04.685Z,1.60
2017-10-13T10:12:32.948Z,1.80
2017-10-13T10:15:01.249Z,1.60
2017-10-13T10:17:29.147Z,1.60
2017-10-13T10:19:57.423Z,2.03
2017-10-13T10:22:24.939Z,1.77
2017-10-13T10:24:52.439Z,1.53
2017-10-13T10:27:19.946Z,1.43
2017-10-13T10:29:47.512Z,1.30
2017-10-13T10:32:15.898Z,2.30
2017-10-13T10:34:44.750Z,1.60
2017-10-13T10:37:12.242Z,1.57
2017-10-13T10:39:39.743Z,1.90
2017-10-13T10:42:08.020Z,1.47
2017-10-13T10:44:36.284Z,1.47
2017-10-13T10:47:04.932Z,1.87
2017-10-13T10:49:32.435Z,1.90
2017-10-13T10:52:00.743Z,1.20
2017-10-13T10:54:28.240Z,1.43
2017-10-13T10:56:55.734Z,1.63
2017-10-13T10:59:23.624Z,1.70
2017-10-13T11:01:52.259Z,1.60
2017-10-13T11:04:19.763Z,1.50
2017-10-13T11:06:47.264Z,1.60
2017-10-13T11:09:16.287Z,1.30
2017-10-13T11:11:43.808Z,1.00
2017-10-13T11:14:12.697Z,1.70
2017-10-13T11:16:40.959Z,1.30
2017-10-13T11:19:09.593Z,1.37
2017-10-13T11:21:37.091Z,1.70
2017-10-13T11:24:04.984Z,2.20
2017-10-13T11:26:33.258Z,1.50
2017-10-13T11:29:01.159Z,1.80
2017-10-13T11:31:28.651Z,1.40
2017-10-13T11:33:56.157Z,1.30
2017-10-13T11:36:23.672Z,1.50
2017-10-13T11:38:51.172Z,1.73
2017-10-13T11:41:20.173Z,1.40
2017-10-13T11:43:47.684Z,2.07
2017-10-13T11:46:16.705Z,1.70
2017-10-13T11:48:44.204Z,1.40
2017-10-13T11:51:12.133Z,1.60
2017-10-13T11:53:40.999Z,1.40
2017-10-13T11:56:08.492Z,1.50
2017-10-13T11:58:35.994Z,2.00
2017-10-13T12:01:04.260Z,1.70
2017-10-13T12:03:31.763Z,1.70
2017-10-13T12:05:59.675Z,1.47
2017-10-13T12:08:27.983Z,1.77
2017-10-13T12:10:56.276Z,1.70
2017-10-13T12:13:25.295Z,1.83
2017-10-13T12:15:52.786Z,1.77
2017-10-13T12:18:21.143Z,1.43
2017-10-13T12:20:48.648Z,1.80
2017-10-13T12:23:16.147Z,1.30
2017-10-13T12:25:43.645Z,1.60
2017-10-13T12:28:11.201Z,1.93
2017-10-13T12:30:38.714Z,1.80
2017-10-13T12:33:06.212Z,1.00
2017-10-13T12:35:34.899Z,2.77
2017-10-13T12:38:03.182Z,1.60
2017-10-13T12:40:30.691Z,1.47
2017-10-13T12:42:58.974Z,2.13
2017-10-13T12:45:27.251Z,1.73
2017-10-13T12:47:55.155Z,1.37
2017-10-13T12:50:22.655Z,1.60
2017-10-13T12:52:50.547Z,1.70
2017-10-13T12:55:18.826Z,1.47
2017-10-13T12:57:47.502Z,1.30
2017-10-13T13:00:14.999Z,1.60
2017-10-13T13:02:43.267Z,1.70
2017-10-13T13:05:10.763Z,1.87
2017-10-13T13:07:38.262Z,1.53
2017-10-13T13:10:05.750Z,1.50
2017-10-13T13:12:34.597Z,1.40
2017-10-13T13:15:03.451Z,1.63
2017-10-13T13:17:32.308Z,1.53
2017-10-13T13:20:01.339Z,1.40
2017-10-13T13:22:28.839Z,1.63
2017-10-13T13:24:56.376Z,1.60
2017-10-13T13:27:25.011Z,1.53
2017-10-13T13:29:52.502Z,1.53
2017-10-13T13:32:19.999Z,1.70
2017-10-13T13:34:47.527Z,1.60
2017-10-13T13:37:15.047Z,1.60
2017-10-13T13:39:42.552Z,1.53
2017-10-13T13:42:10.067Z,1.70
2017-10-13T13:44:37.958Z,2.00
2017-10-13T13:47:05.483Z,1.60
2017-10-13T13:49:32.979Z,1.80
2017-10-13T13:52:00.511Z,1.60
2017-10-13T13:54:28.023Z,1.63
2017-10-13T13:56:56.297Z,1.90
2017-10-13T13:59:24.611Z,1.47
2017-10-13T14:01:52.107Z,2.00
2017-10-13T14:04:19.603Z,1.30
2017-10-13T14:06:47.119Z,1.57
2017-10-13T14:09:14.643Z,1.70
2017-10-13T14:11:42.143Z,1.77
2017-10-13T14:14:09.692Z,1.70
2017-10-13T14:16:38.538Z,1.87
2017-10-13T14:19:06.806Z,2.50
2017-10-13T14:21:35.662Z,1.63
2017-10-13T14:24:03.568Z,1.70
2017-10-13T14:26:31.075Z,1.40
2017-10-13T14:28:58.570Z,1.60
2017-10-13T14:31:26.091Z,1.50
2017-10-13T14:33:54.934Z,1.50
2017-10-13T14:36:22.475Z,1.60
2017-10-13T14:38:50.885Z,1.70
2017-10-13T14:41:18.395Z,1.63
2017-10-13T14:43:45.905Z,1.80
2017-10-13T14:46:13.426Z,2.20
2017-10-13T14:48:42.062Z,1.70
2017-10-13T14:51:10.331Z,1.37
2017-10-13T14:53:38.223Z,1.77
2017-10-13T14:56:05.727Z,2.03
2017-10-13T14:58:34.398Z,1.73
2017-10-13T15:01:01.900Z,1.60
2017-10-13T15:03:29.460Z,1.93
2017-10-13T15:05:56.976Z,1.50
2017-10-13T15:08:24.482Z,1.80
2017-10-13T15:10:51.993Z,1.50
2017-10-13T15:13:19.499Z,1.80
2017-10-13T15:15:47.771Z,1.30
2017-10-13T15:18:15.281Z,1.20
2017-10-13T15:20:43.939Z,1.40
2017-10-13T15:23:11.439Z,1.63
2017-10-13T15:25:44.727Z,1.93
2017-10-13T15:28:19.290Z,1.50
2017-10-13T15:30:52.402Z,2.00
2017-10-13T15:33:25.509Z,1.80
2017-10-13T15:35:58.730Z,1.57
2017-10-13T15:38:32.332Z,1.80
2017-10-13T15:41:05.375Z,2.03
2017-10-13T15:43:39.255Z,1.80
2017-10-13T15:46:21.631Z,2.20
2017-10-13T15:49:05.572Z,2.30
2017-10-13T15:51:39.787Z,1.80
2017-10-13T15:54:08.063Z,2.00
2017-10-13T15:56:35.619Z,5.30
2017-10-13T15:59:03.140Z,3.10
2017-10-13T16:01:30.668Z,1.90
2017-10-13T16:03:58.569Z,1.67
2017-10-13T16:06:26.071Z,1.67
2017-10-13T16:08:53.588Z,2.00
2017-10-13T16:11:21.082Z,2.30
2017-10-13T16:13:48.614Z,2.73
2017-10-13T16:16:16.517Z,1.93
2017-10-13T16:18:44.068Z,2.60
2017-10-13T16:21:11.569Z,2.37
2017-10-13T16:23:39.864Z,2.60
2017-10-13T16:26:07.762Z,2.00
2017-10-13T16:28:35.258Z,2.30
2017-10-13T16:31:04.259Z,2.57
2017-10-13T16:33:31.770Z,2.17
2017-10-13T16:36:00.774Z,2.13
2017-10-13T16:38:29.047Z,2.00
2017-10-13T16:40:56.951Z,1.97
2017-10-13T16:43:25.800Z,2.67
2017-10-13T16:45:54.083Z,1.80
2017-10-13T16:48:22.762Z,2.50
2017-10-13T16:50:50.697Z,1.83
2017-10-13T16:53:18.192Z,2.50
2017-10-13T16:55:45.687Z,2.00
2017-10-13T16:58:13.200Z,2.17
2017-10-13T17:00:42.211Z,2.43
2017-10-13T17:03:09.726Z,3.10
2017-10-13T17:05:38.746Z,3.67
2017-10-13T17:08:06.384Z,3.40
2017-10-13T17:10:33.884Z,4.23
2017-10-13T17:13:01.806Z,3.60
2017-10-13T17:15:29.310Z,3.90
2017-10-13T17:17:56.852Z,3.73
2017-10-13T17:20:24.356Z,3.70
2017-10-13T17:22:52.628Z,3.83
2017-10-13T17:25:20.534Z,3.50
2017-10-13T17:27:48.806Z,3.33
2017-10-13T17:30:17.821Z,4.20
2017-10-13T17:32:46.823Z,3.00
2017-10-13T17:35:15.688Z,3.43
2017-10-13T17:37:43.952Z,3.20
2017-10-13T17:40:12.835Z,3.00
2017-10-13T17:42:41.115Z,3.30
2017-10-13T17:45:09.788Z,2.77
2017-10-13T17:47:37.304Z,2.83
2017-10-13T17:50:05.237Z,3.10
2017-10-13T17:52:32.760Z,3.20
2017-10-13T17:55:00.276Z,4.20
2017-10-13T17:57:28.187Z,3.00
2017-10-13T17:59:55.689Z,3.10
2017-10-13T18:02:23.196Z,2.90
2017-10-13T18:04:50.729Z,3.00
2017-10-13T18:07:18.251Z,3.17
2017-10-13T18:09:45.761Z,3.17
2017-10-13T18:12:13.295Z,3.30
2017-10-13T18:14:40.795Z,3.53
2017-10-13T18:17:08.329Z,3.33
2017-10-13T18:19:35.847Z,4.17
2017-10-13T18:22:03.351Z,3.60
2017-10-13T18:24:30.859Z,4.40
2017-10-13T18:26:58.757Z,4.33
2017-10-13T18:29:27.610Z,4.20
2017-10-13T18:31:55.513Z,4.00
2017-10-13T18:34:23.827Z,3.53
2017-10-13T18:36:51.321Z,4.10
2017-10-13T18:39:18.884Z,3.80
2017-10-13T18:41:47.156Z,4.00
2017-10-13T18:44:15.436Z,4.60
2017-10-13T18:46:42.935Z,4.87
2017-10-13T18:49:10.447Z,4.67
2017-10-13T18:51:38.723Z,4.53
2017-10-13T18:54:06.225Z,4.60
2017-10-13T18:56:33.746Z,4.60
2017-10-13T18:59:01.236Z,5.00
2017-10-13T19:01:30.264Z,4.47
2017-10-13T19:03:57.776Z,5.10
2017-10-13T19:06:26.806Z,4.67
2017-10-13T19:08:54.315Z,5.50
2017-10-13T19:11:22.244Z,5.77
2017-10-13T19:13:49.758Z,6.00
2017-10-13T19:16:18.764Z,6.70
2017-10-13T19:18:46.280Z,6.90
2017-10-13T19:21:13.780Z,6.57
2017-10-13T19:23:41.300Z,6.50
2017-10-13T19:26:08.819Z,5.80
2017-10-13T19:28:36.342Z,5.87
2017-10-13T19:31:04.617Z,6.30
2017-10-13T19:33:32.176Z,6.33
2017-10-13T19:35:59.685Z,7.03
2017-10-13T19:38:28.332Z,7.83
2017-10-13T19:40:55.842Z,8.67
2017-10-13T19:43:23.351Z,7.20
2017-10-13T19:45:50.871Z,7.30
2017-10-13T19:48:18.376Z,6.00
2017-10-13T19:50:45.920Z,4.30
2017-10-13T19:53:14.570Z,3.83
2017-10-13T19:55:42.126Z,4.20
2017-10-13T19:58:09.678Z,3.60
2017-10-13T20:00:37.184Z,3.30
2017-10-13T20:03:05.453Z,4.47
2017-10-13T20:05:33.732Z,3.70
2017-10-13T20:08:02.082Z,4.30
2017-10-13T20:10:29.997Z,4.70
2017-10-13T20:12:57.515Z,4.57
2017-10-13T20:15:25.028Z,4.90
2017-10-13T20:17:53.342Z,4.40
2017-10-13T20:20:20.891Z,3.90
2017-10-13T20:22:48.397Z,4.00
2017-10-13T20:25:15.903Z,3.60
2017-10-13T20:27:43.440Z,3.63
2017-10-13T20:30:10.963Z,3.60
2017-10-13T20:32:38.529Z,4.50
2017-10-13T20:35:06.463Z,3.90
2017-10-13T20:37:33.955Z,3.37
2017-10-13T20:40:01.505Z,3.47
2017-10-13T20:42:29.792Z,3.37
2017-10-13T20:44:57.299Z,4.57
2017-10-13T20:47:24.799Z,4.03
2017-10-13T20:49:52.305Z,2.80
2017-10-13T20:52:19.814Z,3.53
2017-10-13T20:54:47.325Z,3.47
2017-10-13T20:57:14.845Z,3.60
2017-10-13T20:59:42.358Z,3.00
2017-10-13T21:02:09.892Z,3.60
2017-10-13T21:04:37.787Z,2.97
2017-10-13T21:07:06.827Z,2.97
2017-10-13T21:09:34.336Z,3.00
2017-10-13T21:12:02.237Z,3.33
2017-10-13T21:14:31.104Z,4.00
2017-10-13T21:16:58.601Z,3.47
2017-10-13T21:19:26.113Z,3.33
2017-10-13T21:21:54.388Z,3.07
2017-10-13T21:24:23.262Z,3.37
2017-10-13T21:26:51.526Z,4.00
2017-10-13T21:29:19.803Z,3.50
2017-10-13T21:31:48.079Z,3.37
2017-10-13T21:34:16.384Z,3.70
2017-10-13T21:36:43.883Z,4.17
2017-10-13T21:39:11.399Z,3.53
2017-10-13T21:41:39.687Z,3.47
2017-10-13T21:44:07.982Z,2.90
2017-10-13T21:46:35.892Z,3.50
2017-10-13T21:49:03.395Z,3.60
2017-10-13T21:51:30.914Z,3.40
2017-10-13T21:53:58.425Z,3.40
2017-10-13T21:56:25.960Z,3.73
2017-10-13T21:58:53.464Z,4.00
2017-10-13T22:01:20.979Z,4.00
2017-10-13T22:03:49.247Z,4.73
2017-10-13T22:06:16.775Z,3.50
2017-10-13T22:08:44.271Z,4.60
2017-10-13T22:11:11.796Z,4.00
2017-10-13T22:13:39.328Z,4.63
2017-10-13T22:16:07.590Z,5.00
2017-10-13T22:18:35.115Z,5.23
2017-10-13T22:21:02.613Z,4.10
2017-10-13T22:23:30.923Z,5.20
2017-10-13T22:25:58.426Z,4.70
2017-10-13T22:28:26.683Z,4.37
2017-10-13T22:30:54.176Z,4.20
2017-10-13T22:33:22.436Z,4.43
2017-10-13T22:35:49.946Z,4.40
2017-10-13T22:38:17.442Z,3.73
2017-10-13T22:40:44.968Z,4.07
2017-10-13T22:43:12.859Z,4.23
2017-10-13T22:45:40.394Z,4.63
2017-10-13T22:48:08.668Z,4.60
2017-10-13T22:50:36.936Z,4.57
2017-10-13T22:53:04.443Z,3.47
2017-10-13T22:55:31.964Z,3.33
2017-10-13T22:58:00.619Z,3.70
2017-10-13T23:00:28.130Z,3.70
2017-10-13T23:02:56.407Z,2.97
2017-10-13T23:05:23.911Z,2.97
2017-10-13T23:07:51.457Z,3.17
2017-10-13T23:10:18.961Z,3.90
2017-10-13T23:12:47.809Z,2.83
2017-10-13T23:15:15.312Z,3.63
2017-10-13T23:17:42.819Z,2.87
2017-10-13T23:20:10.731Z,2.80
2017-10-13T23:22:38.319Z,3.60
2017-10-13T23:25:06.233Z,2.53
2017-10-13T23:27:33.751Z,3.30
2017-10-13T23:30:01.300Z,2.83
2017-10-13T23:32:28.807Z,3.10
2017-10-13T23:34:56.703Z,2.77
2017-10-13T23:37:24.203Z,3.93
2017-10-13T23:39:52.099Z,3.37
2017-10-13T23:42:20.754Z,2.80
2017-10-13T23:44:49.762Z,2.80
2017-10-13T23:47:17.268Z,2.90
2017-10-13T23:49:44.763Z,2.80
2017-10-13T23:52:12.657Z,3.00
2017-10-13T23:54:40.183Z,3.00
2017-10-13T23:57:08.654Z,3.50
2017-10-13T23:59:36.175Z,2.57
